Time;durP1;ratioP1;P1;durP2;ratioP2;P2;SDS_P1;SDS_P2;PMS_P1;PMS_P2;Temp;Humidity;BMP_temperature;BMP_pressure;BME280_temperature;BME280_humidity;BME280_pressure;Samples;Min_cycle;Max_cycle;Signal;HPM_P1;HPM_P2
2022/12/14 16:22:41;;;;;;;288.13;120.53;;;;;;;1.94;58.85;99295.17;2531317;77;27049;-81
2022/12/14 16:26:41;;;;;;;253.30;107.17;;;;;;;2.15;57.58;99308.41;2556453;77;25632;-84
2022/12/14 16:30:41;;;;;;;219.75;92.12;;;;;;;2.37;56.91;99299.45;2557070;77;25608;-81
2022/12/14 16:34:26;;;;;;;163.30;74.67;;;;;;;2.57;56.39;99291.22;2535549;76;25601;-83
2022/12/14 16:38:19;;;;;;;156.95;68.52;;;;;;;2.74;55.84;99290.55;2512043;76;25665;-82
2022/12/14 16:41:53;;;;;;;126.75;59.42;;;;;;;2.88;55.66;99286.78;2495983;78;25122;-83
2022/12/14 16:45:37;;;;;;;120.05;54.70;;;;;;;2.99;55.29;99280.31;2441751;79;26067;-81
2022/12/14 16:49:38;;;;;;;80.28;38.75;;;;;;;3.08;54.94;99281.07;2401727;80;25828;-84
2022/12/14 16:53:23;;;;;;;95.67;44.95;;;;;;;3.17;54.64;99277.92;2339000;83;25719;-83
2022/12/14 16:56:55;;;;;;;91.57;44.93;;;;;;;3.23;54.27;99273.00;2322582;83;25650;-83
2022/12/14 17:00:36;;;;;;;74.15;36.73;;;;;;;3.27;53.90;99261.59;2334036;83;25688;-84
2022/12/14 17:04:22;;;;;;;75.90;35.60;;;;;;;3.33;53.62;99263.48;2244961;87;25794;-82
2022/12/14 17:08:03;;;;;;;63.80;32.83;;;;;;;3.37;53.31;99259.30;2228486;86;25642;-83
2022/12/14 17:11:50;;;;;;;60.63;32.45;;;;;;;3.42;53.07;99261.64;2227427;87;26013;-83
2022/12/14 17:15:27;;;;;;;52.48;28.30;;;;;;;3.44;52.82;99248.38;2207124;88;25861;-82
2022/12/14 17:19:07;;;;;;;53.58;28.12;;;;;;;3.47;52.45;99245.48;2227593;87;25744;-82
2022/12/14 17:22:41;;;;;;;59.15;27.70;;;;;;;3.51;52.21;99243.89;2216091;87;25756;-83
2022/12/14 17:26:33;;;;;;;47.78;26.30;;;;;;;3.53;52.03;99234.10;2247056;85;25747;-83
2022/12/14 17:30:17;;;;;;;42.67;24.37;;;;;;;3.56;51.77;99230.77;2322611;83;25896;-77
2022/12/14 17:33:38;;;;;;;48.17;26.35;;;;;;;3.58;51.62;99223.97;2289663;86;25774;-81
2022/12/14 17:37:28;;;;;;;43.25;24.25;;;;;;;3.59;51.47;99217.98;2295373;86;25845;-82
2022/12/14 17:40:59;;;;;;;39.13;23.40;;;;;;;3.61;51.27;99206.03;2295643;85;25799;-83
2022/12/14 17:44:39;;;;;;;43.33;23.92;;;;;;;3.62;51.13;99202.63;2296223;83;26493;-82
2022/12/14 17:48:25;;;;;;;39.85;23.27;;;;;;;3.63;50.99;99193.19;2354611;82;25817;-77
2022/12/14 17:51:56;;;;;;;41.98;22.70;;;;;;;3.64;50.85;99186.77;2314428;85;25757;-84
2022/12/14 17:55:31;;;;;;;37.00;23.30;;;;;;;3.65;50.72;99194.98;2289236;85;26508;-89
2022/12/14 17:59:04;;;;;;;37.23;21.37;;;;;;;3.64;50.55;99177.75;2313808;84;26523;-77
2022/12/14 18:02:38;;;;;;;35.65;21.00;;;;;;;3.63;50.42;99164.84;2319459;85;26484;-81
2022/12/14 18:06:11;;;;;;;37.63;23.32;;;;;;;3.63;50.31;99166.12;2315207;84;25678;-82
2022/12/14 18:09:52;;;;;;;38.17;22.55;;;;;;;3.62;50.21;99165.25;2327019;84;25653;-82
2022/12/14 18:13:35;;;;;;;;;;;;;;;;;;;;;
2022/12/14 18:16:58;;;;;;;35.80;21.77;;;;;;;3.58;49.96;99158.26;2222320;84;25763;-83
2022/12/14 18:20:28;;;;;;;40.70;22.82;;;;;;;3.59;49.94;99157.84;2146557;91;25908;-83
2022/12/14 18:24:02;;;;;;;38.28;21.42;;;;;;;3.60;49.80;99160.45;2123418;91;25884;-80
2022/12/14 18:27:27;;;;;;;37.15;21.75;;;;;;;3.58;49.76;99158.26;2137430;91;25769;-85
2022/12/14 18:31:06;;;;;;;36.10;21.75;;;;;;;3.57;49.64;99157.77;2169053;90;25901;-84
2022/12/14 18:34:55;;;;;;;37.33;22.40;;;;;;;3.58;49.63;99158.26;2111225;93;25818;-82
2022/12/14 18:38:26;;;;;;;39.30;21.85;;;;;;;3.58;49.54;99154.39;2103634;93;25764;-81
2022/12/14 18:41:50;;;;;;;34.25;20.80;;;;;;;3.57;49.47;99149.17;2108491;93;25748;-88
2022/12/14 18:45:37;;;;;;;38.23;21.73;;;;;;;3.58;49.50;99144.09;2111330;93;25777;-84
2022/12/14 18:49:10;;;;;;;35.28;20.32;;;;;;;3.61;49.48;99134.27;2015787;93;25790;-85
2022/12/14 18:52:39;;;;;;;37.98;21.68;;;;;;;3.61;49.37;99129.11;2011283;95;25819;-83
2022/12/14 18:56:26;;;;;;;38.65;21.52;;;;;;;3.61;49.22;99118.80;1996181;97;25851;-80
2022/12/14 19:00:10;;;;;;;38.48;21.05;;;;;;;3.60;49.25;99121.80;1975465;97;25770;-81
2022/12/14 19:03:47;;;;;;;36.63;20.05;;;;;;;3.60;49.13;99111.48;1961903;99;25964;-95
2022/12/14 19:07:15;;;;;;;37.23;20.82;;;;;;;3.61;49.13;99113.66;1961333;100;25833;-77
2022/12/14 19:10:41;;;;;;;34.27;20.05;;;;;;;3.62;49.13;99120.58;1972121;99;25900;-77
2022/12/14 19:14:16;;;;;;;36.13;20.52;;;;;;;3.63;49.05;99108.14;1996821;98;25770;-77
2022/12/14 19:17:44;;;;;;;36.15;20.32;;;;;;;3.61;48.97;99104.63;2078172;93;25700;-76
2022/12/14 19:21:18;;;;;;;36.30;21.00;;;;;;;3.62;48.91;99117.58;2090430;93;25900;-77
2022/12/14 19:24:58;;;;;;;34.95;22.02;;;;;;;3.62;48.93;99120.16;2063158;94;25932;-80
2022/12/14 19:28:35;;;;;;;40.90;21.12;;;;;;;3.61;48.87;99123.57;2042953;95;25366;-81
2022/12/14 19:32:11;;;;;;;34.98;20.95;;;;;;;3.63;48.87;99127.05;2105788;91;25798;-81
2022/12/14 19:35:53;;;;;;;33.83;19.92;;;;;;;3.65;48.83;99120.67;2124407;91;26057;-80
2022/12/14 19:39:50;;;;;;;38.10;21.42;;;;;;;3.64;48.84;99114.61;2120084;90;26334;-81
2022/12/14 19:43:25;;;;;;;34.18;20.43;;;;;;;3.67;48.81;99115.13;2127413;90;25779;-81
2022/12/14 19:46:57;;;;;;;35.13;20.80;;;;;;;3.68;48.73;99115.58;2129984;88;25982;-82
2022/12/14 19:50:21;;;;;;;31.33;20.40;;;;;;;3.70;48.70;99106.20;2071437;92;26126;-80
2022/12/14 19:53:52;;;;;;;34.63;19.62;;;;;;;3.71;48.71;99109.23;2072270;92;25668;-80
2022/12/14 19:57:39;;;;;;;;;;;;;;;;;;;;;
2022/12/14 20:00:58;;;;;;;33.40;19.77;;;;;;;3.73;48.64;99104.59;2228670;87;25878;-80
2022/12/14 20:04:22;;;;;;;34.45;20.17;;;;;;;3.75;48.65;99105.95;2295214;84;26419;-80
2022/12/14 20:07:51;;;;;;;34.53;19.80;;;;;;;3.76;48.59;99099.95;2315614;84;26060;-83
2022/12/14 20:11:19;;;;;;;31.97;19.75;;;;;;;3.74;48.54;99086.14;2314536;84;25636;-81
2022/12/14 20:14:57;;;;;;;37.30;19.02;;;;;;;3.75;48.58;99082.34;2287946;84;25712;-81
2022/12/14 20:18:22;;;;;;;36.48;20.15;;;;;;;3.75;48.57;99075.89;2305863;85;25695;-80
2022/12/14 20:21:46;;;;;;;30.40;18.62;;;;;;;3.76;48.55;99066.03;2311717;82;25579;-82
2022/12/14 20:25:25;;;;;;;38.10;20.70;;;;;;;3.78;48.57;99066.96;2308114;84;25714;-81
2022/12/14 20:29:04;;;;;;;36.10;21.30;;;;;;;3.89;51.60;99041.91;2313912;83;25645;-82
2022/12/14 20:32:28;;;;;;;35.03;19.95;;;;;;;4.05;51.81;99042.80;2303696;85;26010;-80
2022/12/14 20:35:58;;;;;;;36.45;20.20;;;;;;;4.07;51.33;99039.84;2320146;84;25895;-82
2022/12/14 20:39:33;;;;;;;32.53;18.02;;;;;;;4.11;51.43;99049.81;2318621;85;25822;-82
2022/12/14 20:43:02;;;;;;;32.00;19.15;;;;;;;4.12;51.47;99049.01;2263557;86;25666;-81
2022/12/14 20:46:30;;;;;;;33.78;19.75;;;;;;;4.13;51.49;99054.61;2292846;83;25661;-82
2022/12/14 20:49:59;;;;;;;32.67;19.12;;;;;;;4.14;51.56;99052.48;2377633;80;25606;-83
2022/12/14 20:53:33;;;;;;;29.37;17.75;;;;;;;4.13;51.49;99043.01;2396286;81;25556;-81
2022/12/14 20:56:59;;;;;;;28.30;18.12;;;;;;;4.14;51.45;99043.03;2318553;82;25741;-81
2022/12/14 21:00:30;;;;;;;32.10;18.73;;;;;;;4.15;51.38;99024.56;2323608;83;25894;-80
2022/12/14 21:04:03;;;;;;;30.97;18.27;;;;;;;4.15;51.30;99025.84;2386196;81;25639;-81
